Main page
Satellite images 10-day forecastsClimateMarine weather Cyclones Lightning AirportsFAQ Newsletter About
Weather : Europe Africa North America South America Asia Australia-Oceania Others
Languages Contact

Gomel, Belarus

Gomel Airport

latitude: 52-31-36N, longitude: 031-01-06E, elevation: 144 m


METAR: UMGG 050400Z VRB01MPS CAVOK 18/14 Q1021 R28/D NOSIG
TAF: UMGG 042300Z 0500/0524 VRB02MPS 9999 SCT020 TX30/0512Z TN17/0503Z

Time: 07:19 (04:19 UTC)

Current weather observation

The report was made 19 minutes ago, at 04:00 UTC
Wind 2 kt from variable directions
Temperature 18°C
Humidity 77%
Pressure 1021 hPa
Visibility 10 km or more
no clouds below 1500 m and no cumulonimbus

Change units

Forecast

The report was made 5 hours and 19 minutes ago, at 23:00 UTC
Forecast valid from 05 at 00 UTC to 05 at 24 UTC
Wind 4 kt from variable directions
Visibility 10 km or more
Scattered clouds at a height of 2000 ft
The information on this site is subject to a disclaimer
Weather : Europe Africa North America South America Asia Australia-Oceania Others
Satellite images 10-day forecastsClimateMarine weather Cyclones Lightning AirportsFAQ Languages Contact Newsletter About